DATE METEO

AZI
Time Temp. Dewp. Hum. Wind dir Wind speed Wind gust Bar. 1h Prec. 24h Prec.
00:00 16 10.1 68 270 1.7 3.1 1025.5 0.0000 0.0000
00:11 15.8 10.1 69 270 1.9 3.1 1025.4 0.0000 0.0000
00:20 15.6 9.9 69 270 1.7 3.3 1025.3 0.0000 0.0000
00:30 15.4 10 70 270 1.7 3.1 1025.4 0.0000 0.0000
00:41 15.3 9.9 70 270 1.7 2.5 1025.5 0.0000 0.0000
00:51 15.1 9.9 71 270 1.7 2.8 1025.5 0.0000 0.0000
01:01 15 9.8 71 270 1.9 2.8 1025.5 0.0000 0.0000
01:10 14.9 9.9 72 270 1.7 2.5 1025.4 0.0000 0.0000
01:21 14.7 9.7 72 277 1.9 3.3 1025.4 0.0000 0.0000
01:31 14.6 9.6 72 270 1.7 2.8 1025.4 0.0000 0.0000
01:41 14.5 9.7 73 270 1.9 3.1 1025.4 0.0000 0.0000
01:51 14.4 9.6 73 270 1.7 2.8 1025.4 0.0000 0.0000
02:01 14.2 9.6 74 270 1.7 2.8 1025.3 0.0000 0.0000
02:11 14.1 9.5 74 270 1.7 2.5 1025.2 0.0000 0.0000
02:21 14 9.4 74 264 1.7 3.1 1025.2 0.0000 0.0000
02:32 13.9 9.5 75 270 1.7 2.5 1025.2 0.0000 0.0000
02:42 13.8 9.5 75 270 1.7 2.5 1025.1 0.0000 0.0000
02:51 13.6 9.3 75 263 1.7 2.8 1025.1 0.0000 0.0000
03:01 13.5 9.2 75 270 1.7 2.8 1025.1 0.0000 0.0000
03:12 13.4 9.3 76 270 1.7 2.8 1025 0.0000 0.0000
03:22 13.3 9 75 262 1.4 2.8 1024.9 0.0000 0.0000
03:32 13.2 9.1 76 270 1.7 2.8 1024.9 0.0000 0.0000
03:42 13.1 9 76 270 1.7 2.5 1024.8 0.0000 0.0000
03:52 13 8.9 76 264 1.7 2.8 1024.7 0.0000 0.0000
04:02 12.8 8.7 76 270 1.7 2.8 1024.6 0.0000 0.0000
04:12 12.7 8.6 76 270 1.7 2.5 1024.6 0.0000 0.0000
04:23 12.6 8.7 77 270 1.7 2.8 1024.4 0.0000 0.0000
04:32 12.5 8.4 76 270 1.4 2.5 1024.2 0.0000 0.0000
04:42 12.4 8.3 76 270 1.7 3.1 1024.1 0.0000 0.0000
04:53 12.3 8.2 76 265 1.7 2.5 1024.1 0.0000 0.0000
05:03 12.1 8 76 270 1.7 2.8 1024.1 0.0000 0.0000
05:13 12 8.1 77 270 1.7 2.8 1024 0.0000 0.0000
05:22 11.9 8 77 270 1.4 2.5 1023.9 0.0000 0.0000
05:33 11.8 7.9 77 270 1.7 2.5 1023.8 0.0000 0.0000
05:43 11.7 7.8 77 270 1.7 2.2 1023.8 0.0000 0.0000
05:53 11.6 7.9 78 270 1.7 2.8 1023.8 0.0000 0.0000
06:04 11.5 7.8 78 270 1.7 2.5 1023.8 0.0000 0.0000
06:13 11.5 7.8 78 265 1.7 2.8 1023.8 0.0000 0.0000
06:23 11.4 7.7 78 270 1.4 2.8 1023.9 0.0000 0.0000
06:33 11.4 7.9 79 270 1.7 2.5 1023.9 0.0000 0.0000
06:44 11.5 8.2 80 270 1.4 2.2 1023.9 0.0000 0.0000
06:54 11.5 8.2 80 270 1.4 2.2 1023.9 0.0000 0.0000
07:03 11.5 8.2 80 270 1.4 2.2 1024 0.0000 0.0000
07:14 11.6 8.5 81 270 1.4 2.5 1024 0.0000 0.0000
07:24 11.8 8.8 82 263 1.4 2.5 1023.9 0.0000 0.0000
07:34 11.9 9.1 83 270 1.1 1.9 1023.9 0.0000 0.0000
07:44 12.2 9.4 83 259 1.1 1.9 1023.9 0.0000 0.0000
07:54 12.5 9.9 84 270 1.1 2.2 1023.9 0.0000 0.0000
08:04 12.7 10.1 84 270 1.1 1.7 1023.9 0.0000 0.0000
08:14 13 10.4 84 270 1.1 1.9 1023.9 0.0000 0.0000
08:24 13.2 10.4 83 277 1.4 2.2 1024 0.0000 0.0000
08:35 13.5 10.9 84 264 1.4 2.5 1023.9 0.0000 0.0000
08:44 13.8 11 83 270 1.4 2.2 1023.8 0.0000 0.0000
08:54 14.1 11.1 82 270 1.4 2.2 1023.8 0.0000 0.0000
09:05 14.4 11.2 81 270 1.7 2.5 1023.8 0.0000 0.0000
09:15 14.6 11.4 81 264 1.7 2.5 1023.8 0.0000 0.0000
09:25 14.8 11.6 81 263 1.7 2.5 1023.7 0.0000 0.0000
09:34 15.1 11.7 80 261 1.7 6.1 1023.7 0.0000 0.0000
09:44 15.5 12.1 80 295 3.1 8.1 1023.7 0.0000 0.0000
09:53 16 12.4 79 13 2.8 6.4 1023.7 0.0000 0.0000
10:04 16.3 12.5 78 5 2.8 6.1 1023.7 0.0000 0.0000
10:14 16.6 12.6 77 290 2.5 5 1023.6 0.0000 0.0000
10:24 17.2 12.7 75 289 3.1 6.7 1023.6 0.0000 0.0000
10:34 17.4 12.5 73 291 3.1 5 1023.5 0.0000 0.0000
10:44 17.5 12.4 72 281 3.3 5.8 1023.5 0.0000 0.0000
10:54 17.7 12.2 70 281 3.6 6.4 1023.4 0.0000 0.0000
11:04 18.1 11.9 67 281 3.1 5.8 1023.4 0.0000 0.0000
11:15 18.4 11.5 64 286 3.1 5.8 1023.3 0.0000 0.0000
11:25 18.7 11.3 62 292 2.5 6.4 1023.3 0.0000 0.0000
11:34 19 11.6 62 276 3.1 5 1023.3 0.0000 0.0000
11:44 19.3 12.1 63 282 3.3 5.3 1023.3 0.0000 0.0000
11:55 19.6 11.9 61 283 3.3 4.7 1023.2 0.0000 0.0000
12:05 19.8 12.1 61 276 3.3 5.6 1023.1 0.0000 0.0000
12:15 20.2 11.7 58 270 3.1 5.3 1023 0.0000 0.0000
12:25 20.6 12.1 58 260 3.1 4.2 1023 0.0000 0.0000
12:35 20.8 11.7 56 265 3.3 5.3 1022.8 0.0000 0.0000
12:45 21.2 12.4 57 265 3.1 5 1022.7 0.0000 0.0000
12:56 21.6 11.9 54 259 3.3 4.7 1022.6 0.0000 0.0000
13:05 21.8 12.6 56 270 3.3 5.6 1022.5 0.0000 0.0000
13:15 22 12.6 55 274 3.3 5.8 1022.4 0.0000 0.0000
13:26 22.3 12.6 54 267 3.3 5 1022.3 0.0000 0.0000
13:36 22.6 13.1 55 267 3.3 5.6 1022.2 0.0000 0.0000
13:46 23 13.2 54 267 3.6 5.6 1022 0.0000 0.0000
13:56 23.3 13.2 53 265 3.1 6.1 1021.9 0.0000 0.0000
14:06 23.6 13.2 52 261 2.8 4.7 1021.8 0.0000 0.0000
14:16 23.6 12.3 49 258 3.3 5 1021.7 0.0000 0.0000
14:26 24.1 12.7 49 256 3.3 4.7 1021.6 0.0000 0.0000
14:37 24.2 11.9 46 257 3.3 5.3 1021.4 0.0000 0.0000
14:46 24.8 13.4 49 259 3.3 5.3 1021.4 0.0000 0.0000
14:56 25 12.3 45 255 3.3 5.6 1021.3 0.0000 0.0000
15:06 24.9 12.5 46 249 3.3 4.7 1021.2 0.0000 0.0000
15:17 25.2 12.8 46 249 3.3 4.7 1021.1 0.0000 0.0000
15:27 25 12.3 45 249 3.1 4.4 1021.1 0.0000 0.0000
15:36 25 11.6 43 247 3.3 4.7 1021 0.0000 0.0000
15:47 25.4 11.9 43 247 3.6 4.7 1020.9 0.0000 0.0000
15:57 25.4 12.3 44 242 3.3 5.3 1020.7 0.0000 0.0000
16:07 25 12.3 45 250 3.6 5.8 1020.6 0.0000 0.0000
16:17 24.9 11.5 43 241 3.6 6.4 1020.6 0.0000 0.0000
16:27 24.8 12.1 45 249 3.1 4.7 1020.5 0.0000 0.0000
16:37 24.9 12.2 45 249 3.6 5.3 1020.4 0.0000 0.0000
16:47 24.9 12.2 45 246 3.6 5 1020.2 0.0000 0.0000
16:58 24.8 12.4 46 252 3.3 5.3 1020.1 0.0000 0.0000
17:08 24.8 12.1 45 243 3.6 5 1020 0.0000 0.0000
17:17 24.8 10.7 41 241 3.6 5.3 1019.9 0.0000 0.0000
17:27 24.7 11.6 44 245 3.6 5 1019.9 0.0000 0.0000
17:38 24.7 12 45 241 3.6 5 1019.8 0.0000 0.0000
17:48 24.7 12.3 46 240 3.9 5.6 1019.7 0.0000 0.0000
17:58 24.7 12.6 47 244 3.6 5.6 1019.6 0.0000 0.0000
18:08 24.6 12.9 48 257 3.3 6.1 1019.6 0.0000 0.0000
18:18 24.7 12 45 244 3.3 4.7 1019.5 0.0000 0.0000
18:28 24.7 13 48 254 3.6 5.6 1019.4 0.0000 0.0000
18:38 24.9 13.1 48 239 3.6 5.3 1019.3 0.0000 0.0000
18:49 25 12.6 46 246 3.6 6.4 1019.3 0.0000 0.0000
18:58 24.9 12.8 47 250 3.3 6.4 1019.3 0.0000 0.0000
19:08 24.9 12.8 47 251 3.3 5.8 1019.2 0.0000 0.0000
19:19 24.8 12.4 46 260 3.3 6.4 1019.1 0.0000 0.0000
19:29 24.8 13.4 49 258 3.3 5.8 1019.1 0.0000 0.0000

STATISTICILE ZILEI

2020-07-13
TEMPERATURA
MEDIA
17.9
MAXIM
25.4
15:47
MINIM
11.4
06:23
PRESIUNEA
MEDIA
1023.0
MAXIM
1025.5
00:00
MINIM
1019.1
19:19
PUNCTUL DE ROUĂ
MEDIA
10.8
MAXIM
13.4
14:46
MINIM
7.7
06:23
UMIDITATEA
MEDIA
65
MAXIM
84
07:54
MINIM
41
17:17
WIND SPEED
MEDIA
2.5
MAXIM
3.9
17:48
WIND GUST
MEDIA
4.1
MAXIM
8.1
09:44
WIND DIRECTION
PREVAILING
W
85.5%
N
1.7
NE
0.0
E
0.0
SE
0.0
S
0.0
SW
12.0
W
85.5
NW
0.9
PRECIPITATION
RAIN HOUR
0.0
RAIN DAY
0.0
TEMPERATURA (°C)
MINIM
11.4
MAXIM
25.4
MEDIA
17.9
PRESIUNEA (hpa)
MINIM
1019.1
MAXIM
1025.5
MEDIA
1023.0
STATIA METEO